Time;durP1;ratioP1;P1;durP2;ratioP2;P2;SDS_P1;SDS_P2;PMS_P1;PMS_P2;Temp;Humidity;BMP_temperature;BMP_pressure;BME280_temperature;BME280_humidity;BME280_pressure;Samples;Min_cycle;Max_cycle;Signal;HPM_P1;HPM_P2
2021/07/01 00:00:11;;;;;;;;;11.50;10.25;;;;;17.48;64.07;101695.63;5020674;28;45447;-72
2021/07/01 00:02:37;;;;;;;;;11.00;11.00;;;;;17.51;63.53;101691.97;5020482;28;45293;-72
2021/07/01 00:05:04;;;;;;;;;10.50;10.50;;;;;17.49;63.58;101688.53;5024619;28;46353;-72
2021/07/01 00:07:29;;;;;;;;;12.50;11.75;;;;;17.48;63.76;101692.13;5015491;28;45388;-73
2021/07/01 00:09:55;;;;;;;;;10.50;9.75;;;;;17.45;63.35;101693.13;5002422;28;45390;-74
2021/07/01 00:12:20;;;;;;;;;13.00;9.75;;;;;17.42;63.66;101690.63;5032900;28;45443;-74
2021/07/01 00:14:46;;;;;;;;;13.50;10.50;;;;;17.41;63.99;101691.53;5018309;28;45365;-74
2021/07/01 00:17:12;;;;;;;;;21.00;12.25;;;;;17.40;63.83;101692.50;4990998;28;45308;-74
2021/07/01 00:19:37;;;;;;;;;15.25;12.25;;;;;17.36;64.02;101686.44;5019245;28;45598;-74
2021/07/01 00:22:03;;;;;;;;;12.00;11.25;;;;;17.31;63.89;101689.31;5020371;28;45189;-74
2021/07/01 00:24:28;;;;;;;;;13.50;11.00;;;;;17.27;64.18;101685.09;5021427;28;45289;-74
2021/07/01 00:26:53;;;;;;;;;13.50;11.50;;;;;17.26;64.32;101683.34;5028570;28;45230;-74
2021/07/01 00:29:19;;;;;;;;;11.00;10.50;;;;;17.27;64.65;101684.22;4999748;28;45327;-74
2021/07/01 00:31:44;;;;;;;;;12.00;9.25;;;;;17.31;64.35;101684.00;5020379;28;45214;-74
2021/07/01 00:34:10;;;;;;;;;13.25;11.50;;;;;17.26;63.96;101680.69;5018617;28;45391;-74
2021/07/01 00:36:35;;;;;;;;;9.75;9.50;;;;;17.20;64.33;101686.31;5013293;28;45159;-74
2021/07/01 00:39:00;;;;;;;;;12.25;10.25;;;;;17.19;64.64;101688.09;5010120;28;45224;-75
2021/07/01 00:41:26;;;;;;;;;11.75;10.50;;;;;17.21;64.30;101685.38;5019915;28;45301;-75
2021/07/01 00:43:52;;;;;;;;;13.25;13.00;;;;;17.21;64.53;101686.22;5019927;28;45448;-75
2021/07/01 00:46:18;;;;;;;;;13.25;12.25;;;;;17.15;64.43;101677.66;5032124;28;45739;-75
2021/07/01 00:48:44;;;;;;;;;10.25;9.25;;;;;17.14;64.81;101678.56;5019889;28;45328;-75
2021/07/01 00:51:10;;;;;;;;;11.75;10.25;;;;;17.19;64.82;101689.88;5019097;28;45353;-75
2021/07/01 00:53:35;;;;;;;;;11.50;10.00;;;;;17.17;64.75;101684.66;5019730;28;46087;-75
2021/07/01 00:56:02;;;;;;;;;12.50;11.00;;;;;17.18;64.65;101682.88;5003948;28;45320;-75
2021/07/01 00:58:27;;;;;;;;;9.75;9.75;;;;;17.20;64.82;101683.66;5019564;28;45366;-75
2021/07/01 01:01:02;;;;;;;;;11.25;11.25;;;;;17.21;64.53;101680.06;5016607;28;45377;-75
2021/07/01 01:03:35;;;;;;;;;13.00;10.25;;;;;17.25;64.75;101686.09;5019824;28;45622;-76
2021/07/01 01:06:02;;;;;;;;;11.50;8.75;;;;;17.21;64.19;101682.72;5021424;28;45590;-76
2021/07/01 01:08:27;;;;;;;;;9.75;9.00;;;;;17.17;64.52;101678.47;5001971;28;45216;-76
2021/07/01 01:10:53;;;;;;;;;9.50;9.00;;;;;17.19;65.47;101671.28;5018750;28;45331;-75
2021/07/01 01:13:26;;;;;;;;;12.00;10.25;;;;;17.21;65.08;101678.25;4989562;28;45982;-79
2021/07/01 01:15:59;;;;;;;;;10.00;9.00;;;;;17.28;65.07;101678.00;5007541;28;46313;-79
2021/07/01 01:18:25;;;;;;;;;11.75;11.75;;;;;17.30;65.06;101681.44;5017554;28;45325;-76
2021/07/01 01:20:52;;;;;;;;;9.25;9.00;;;;;17.28;64.86;101670.88;5018837;28;45551;-76
2021/07/01 01:23:19;;;;;;;;;9.50;9.50;;;;;17.25;64.59;101679.00;5019186;28;47233;-77
2021/07/01 01:25:47;;;;;;;;;10.75;10.75;;;;;17.18;64.81;101678.44;5029441;28;45392;-77
2021/07/01 01:28:12;;;;;;;;;9.25;6.75;;;;;17.19;64.66;101687.22;4992314;28;45523;-77
2021/07/01 01:30:39;;;;;;;;;10.25;9.25;;;;;17.15;64.47;101669.69;5022023;28;45317;-77
2021/07/01 01:33:09;;;;;;;;;12.00;8.50;;;;;17.12;64.90;101669.81;5021895;28;45408;-77
2021/07/01 01:35:36;;;;;;;;;10.00;9.00;;;;;17.07;65.21;101668.25;5032662;28;45374;-77
2021/07/01 01:38:02;;;;;;;;;9.75;8.50;;;;;17.17;65.24;101678.47;5022870;28;45211;-77
2021/07/01 01:40:28;;;;;;;;;11.75;9.25;;;;;17.19;65.00;101682.78;5022727;28;45363;-77
2021/07/01 01:42:54;;;;;;;;;6.75;6.75;;;;;17.20;65.06;101675.69;5022196;28;45504;-77
2021/07/01 01:45:19;;;;;;;;;8.75;7.25;;;;;17.22;64.75;101681.78;5030985;28;45401;-76
2021/07/01 01:47:47;;;;;;;;;6.00;5.50;;;;;17.19;64.75;101677.47;5016930;28;45696;-76
2021/07/01 01:50:16;;;;;;;;;9.50;9.25;;;;;17.23;64.64;101686.19;5011812;28;45442;-76
2021/07/01 01:52:41;;;;;;;;;8.25;6.75;;;;;17.21;64.61;101686.22;5021766;28;45439;-77
2021/07/01 01:55:10;;;;;;;;;7.50;6.50;;;;;17.19;64.09;101682.78;5021372;28;45538;-78
2021/07/01 01:57:35;;;;;;;;;12.00;8.75;;;;;17.19;63.98;101682.78;5022723;28;45421;-79
2021/07/01 02:00:01;;;;;;;;;8.50;7.00;;;;;17.20;64.63;101678.34;5021588;28;45398;-77
2021/07/01 02:02:27;;;;;;;;;11.00;9.25;;;;;17.21;64.55;101669.44;5004508;28;46503;-75
2021/07/01 02:04:52;;;;;;;;;6.25;5.75;;;;;17.24;64.75;101679.91;5019181;28;45288;-75
2021/07/01 02:07:17;;;;;;;;;9.00;7.75;;;;;17.24;64.70;101679.91;5020745;28;45238;-79
2021/07/01 02:09:43;;;;;;;;;6.00;6.00;;;;;17.25;64.48;101676.34;5008891;28;45406;-79
2021/07/01 02:12:08;;;;;;;;;32.25;25.00;;;;;17.28;64.70;101675.34;5020953;28;45779;-76
2021/07/01 02:14:34;;;;;;;;;9.75;8.50;;;;;17.28;64.66;101670.03;5024267;28;45149;-76
2021/07/01 02:16:59;;;;;;;;;9.00;9.00;;;;;17.18;64.26;101664.28;5020041;28;45262;-76
2021/07/01 02:19:24;;;;;;;;;11.50;11.50;;;;;17.19;64.83;101671.28;5020910;28;45276;-76
2021/07/01 02:21:50;;;;;;;;;16.00;13.50;;;;;17.20;64.73;101673.03;5022228;28;45269;-76
2021/07/01 02:24:15;;;;;;;;;21.50;18.00;;;;;17.15;64.85;101664.38;5023278;28;45495;-76
2021/07/01 02:26:41;;;;;;;;;14.75;14.50;;;;;17.17;64.76;101673.16;5032010;28;45208;-77
2021/07/01 02:29:06;;;;;;;;;16.50;14.00;;;;;17.13;64.71;101672.44;5021023;28;45146;-77
2021/07/01 02:31:31;;;;;;;;;10.50;10.50;;;;;17.17;64.99;101673.16;5008191;28;45636;-77
2021/07/01 02:33:57;;;;;;;;;13.75;11.75;;;;;17.15;64.61;101673.25;5009893;28;45510;-77
2021/07/01 02:36:22;;;;;;;;;11.00;10.25;;;;;17.08;64.91;101664.66;5021689;28;45824;-80
2021/07/01 02:38:47;;;;;;;;;11.00;9.75;;;;;17.08;65.21;101664.66;5021286;28;45296;-80
2021/07/01 02:41:13;;;;;;;;;9.75;8.25;;;;;17.08;64.80;101666.47;5020473;28;46423;-81
2021/07/01 02:43:38;;;;;;;;;9.25;7.00;;;;;17.05;64.57;101664.81;5012595;28;45541;-80
2021/07/01 02:46:03;;;;;;;;;9.50;6.50;;;;;17.07;65.77;101664.72;5034351;28;45297;-80
2021/07/01 02:48:29;;;;;;;;;11.50;8.25;;;;;17.05;65.80;101662.16;5012989;28;45377;-81
2021/07/01 02:50:54;;;;;;;;;10.00;8.50;;;;;17.06;66.05;101665.66;5019761;28;46346;-81
2021/07/01 02:53:19;;;;;;;;;11.50;9.50;;;;;17.02;65.49;101658.75;5017075;28;45394;-81
2021/07/01 02:55:45;;;;;;;;;11.75;10.75;;;;;16.99;65.88;101662.41;5028758;28;45249;-79
2021/07/01 02:58:10;;;;;;;;;11.00;9.50;;;;;16.94;65.96;101657.31;5020424;28;45502;-78
2021/07/01 03:00:36;;;;;;;;;11.00;10.25;;;;;16.91;65.79;101652.16;5031859;28;46125;-78
2021/07/01 03:03:01;;;;;;;;;11.25;10.00;;;;;16.90;66.43;101660.19;5023776;28;45384;-78
2021/07/01 03:05:27;;;;;;;;;12.50;11.75;;;;;16.89;66.65;101658.47;5021325;28;45471;-78
2021/07/01 03:07:52;;;;;;;;;11.75;10.00;;;;;16.89;66.88;101647.84;5020682;28;45281;-78
2021/07/01 03:10:17;;;;;;;;;11.00;11.00;;;;;16.93;66.88;101654.75;5002622;28;46007;-78
2021/07/01 03:12:43;;;;;;;;;11.50;9.75;;;;;16.87;66.78;101650.56;5007960;28;45188;-76
2021/07/01 03:15:08;;;;;;;;;18.25;15.50;;;;;16.85;66.92;101652.44;5028190;28;45431;-77
2021/07/01 03:17:39;;;;;;;;;10.75;10.25;;;;;16.89;67.17;101658.47;5016435;28;45420;-78
2021/07/01 03:20:07;;;;;;;;;13.75;10.50;;;;;16.85;67.22;101648.00;5020652;28;45443;-78
2021/07/01 03:22:32;;;;;;;;;14.00;12.25;;;;;16.83;67.29;101655.16;5020596;28;45282;-76
2021/07/01 03:24:58;;;;;;;;;13.25;9.25;;;;;16.80;67.46;101647.31;5017828;28;45345;-76
2021/07/01 03:27:23;;;;;;;;;12.00;11.00;;;;;16.84;67.43;101659.53;5012398;28;45181;-76
2021/07/01 03:29:48;;;;;;;;;13.75;12.00;;;;;16.80;67.70;101649.13;5018933;28;45344;-76
2021/07/01 03:32:14;;;;;;;;;14.00;11.25;;;;;16.81;67.27;101656.16;5012613;28;45398;-78
2021/07/01 03:34:39;;;;;;;;;13.50;12.00;;;;;16.75;67.59;101644.88;5016207;28;45426;-79
2021/07/01 03:37:05;;;;;;;;;12.00;10.50;;;;;16.70;67.42;101643.34;5012305;28;45297;-76
2021/07/01 03:39:30;;;;;;;;;14.50;12.50;;;;;16.70;67.88;101648.66;5021600;28;46191;-85
2021/07/01 03:41:55;;;;;;;;;15.00;12.25;;;;;16.67;67.82;101638.22;5012152;28;45437;-85
2021/07/01 03:44:21;;;;;;;;;12.00;10.75;;;;;16.67;67.99;101651.47;5020183;28;45213;-82
2021/07/01 03:46:46;;;;;;;;;11.25;10.75;;;;;16.65;68.08;101651.53;5020901;28;45245;-83
2021/07/01 03:49:14;;;;;;;;;13.75;12.25;;;;;16.65;68.13;101652.41;5020441;28;45538;-83
2021/07/01 03:51:40;;;;;;;;;11.75;11.75;;;;;16.60;67.78;101654.38;5016224;28;45897;-83
2021/07/01 03:54:05;;;;;;;;;18.50;16.25;;;;;16.58;68.05;101661.56;5020761;28;45390;-83
2021/07/01 03:56:41;;;;;;;;;17.75;15.50;;;;;16.60;68.12;101665.00;5020653;28;45420;-84
2021/07/01 03:59:10;;;;;;;;;18.00;13.25;;;;;16.52;68.05;101661.81;5002773;28;47214;-83
2021/07/01 04:01:37;;;;;;;;;14.50;11.50;;;;;16.52;68.04;101661.81;5003974;28;45217;-80
2021/07/01 04:04:02;;;;;;;;;20.50;14.00;;;;;16.45;68.30;101657.69;5011490;28;45396;-83
2021/07/01 04:06:28;;;;;;;;;17.75;13.75;;;;;16.44;68.53;101659.50;5020269;28;45443;-82
2021/07/01 04:08:53;;;;;;;;;17.25;15.25;;;;;16.47;68.30;101669.13;5019885;28;45600;-83
2021/07/01 04:11:19;;;;;;;;;12.00;12.00;;;;;16.44;68.56;101662.16;5032194;28;45425;-85
2021/07/01 04:13:44;;;;;;;;;16.75;13.25;;;;;16.44;68.83;101659.50;5020753;28;45426;-84
2021/07/01 04:16:09;;;;;;;;;14.50;12.75;;;;;16.48;68.87;101657.56;5032986;28;45383;-80
2021/07/01 04:18:35;;;;;;;;;18.00;18.00;;;;;16.47;68.90;101663.81;5019452;28;45438;-81
2021/07/01 04:21:00;;;;;;;;;14.00;11.25;;;;;16.47;68.68;101663.81;5031949;28;45390;-82
2021/07/01 04:23:25;;;;;;;;;66.75;51.50;;;;;16.47;69.18;101656.72;5002552;28;45320;-82
2021/07/01 04:25:51;;;;;;;;;38.75;32.50;;;;;16.51;69.18;101662.75;5018853;28;45415;-82
2021/07/01 04:28:17;;;;;;;;;25.00;25.00;;;;;16.54;69.73;101662.63;5010076;28;45533;-81
2021/07/01 04:30:42;;;;;;;;;21.25;19.25;;;;;16.54;68.95;101659.97;5001977;28;45235;-88
2021/07/01 04:33:08;;;;;;;;;18.00;13.75;;;;;16.54;68.69;101670.59;4991127;28;45457;-83
2021/07/01 04:35:33;;;;;;;;;17.25;12.00;;;;;16.48;69.14;101665.53;5001790;28;46214;-84
2021/07/01 04:37:58;;;;;;;;;15.50;15.25;;;;;16.51;69.24;101670.72;5020027;28;45606;-80
2021/07/01 04:40:24;;;;;;;;;19.00;17.75;;;;;16.49;69.39;101669.94;5028484;28;45201;-87
2021/07/01 04:42:49;;;;;;;;;19.50;17.25;;;;;16.46;69.23;101675.34;5012114;28;45214;-82
2021/07/01 04:45:15;;;;;;;;;17.25;15.75;;;;;16.44;69.42;101678.09;5027127;28;45578;-81
2021/07/01 04:47:40;;;;;;;;;23.25;17.75;;;;;16.38;69.35;101676.56;5024928;28;45429;-81
2021/07/01 04:50:07;;;;;;;;;16.00;14.50;;;;;16.36;69.41;101683.72;4996299;28;45366;-80
2021/07/01 04:52:32;;;;;;;;;20.25;14.25;;;;;16.31;69.84;101678.59;5013537;28;45542;-80
2021/07/01 04:54:58;;;;;;;;;20.75;15.50;;;;;16.32;69.64;101679.47;5018893;28;45712;-80
2021/07/01 04:57:23;;;;;;;;;22.00;19.00;;;;;16.27;69.66;101679.66;5019825;28;45488;-78
2021/07/01 04:59:49;;;;;;;;;18.50;16.25;;;;;16.26;69.75;101685.03;5024292;28;45454;-78
2021/07/01 05:02:14;;;;;;;;;20.50;18.25;;;;;16.28;69.83;101685.81;5034609;28;45843;-75
2021/07/01 05:04:40;;;;;;;;;19.25;17.00;;;;;16.28;70.20;101686.69;5015811;28;45257;-72
2021/07/01 05:07:05;;;;;;;;;20.25;16.25;;;;;16.28;70.14;101691.13;4995201;28;47059;-72
2021/07/01 05:09:31;;;;;;;;;22.25;17.50;;;;;16.24;69.82;101692.19;5024055;28;45320;-75
2021/07/01 05:11:56;;;;;;;;;20.25;19.50;;;;;16.22;70.09;101686.09;5020628;28;45304;-75
2021/07/01 05:14:21;;;;;;;;;19.50;19.00;;;;;16.22;70.04;101684.31;5018131;28;45956;-75
2021/07/01 05:16:47;;;;;;;;;19.25;15.00;;;;;16.23;70.09;101687.78;5032139;28;46146;-75
2021/07/01 05:19:13;;;;;;;;;21.25;17.75;;;;;16.27;70.07;101692.91;5017671;28;45302;-75
2021/07/01 05:21:39;;;;;;;;;18.25;16.75;;;;;16.27;70.30;101686.75;4990952;28;45219;-75
2021/07/01 05:24:05;;;;;;;;;15.00;15.00;;;;;16.28;70.39;101696.44;5003743;28;46610;-77
2021/07/01 05:26:30;;;;;;;;;18.00;15.00;;;;;16.31;70.43;101696.31;5026736;28;45167;-75
2021/07/01 05:28:56;;;;;;;;;25.00;18.50;;;;;16.36;69.68;101691.69;5014074;28;45207;-75
2021/07/01 05:31:21;;;;;;;;;24.25;17.25;;;;;16.41;70.20;101697.66;5019375;28;45819;-75
2021/07/01 05:33:46;;;;;;;;;19.50;15.25;;;;;16.49;70.14;101699.13;5017974;28;45245;-75
2021/07/01 05:36:12;;;;;;;;;25.25;21.75;;;;;16.54;69.64;101697.97;5016750;28;45352;-75
2021/07/01 05:38:37;;;;;;;;;13.50;12.50;;;;;16.59;69.80;101695.16;5018355;28;45407;-75
2021/07/01 05:41:03;;;;;;;;;19.00;16.25;;;;;16.68;69.82;101698.31;5018320;28;45411;-75
2021/07/01 05:43:28;;;;;;;;;16.25;13.75;;;;;16.75;69.31;101703.28;5019270;28;45313;-75
2021/07/01 05:45:54;;;;;;;;;11.00;11.00;;;;;16.82;69.77;101705.66;5020911;28;45482;-75
2021/07/01 05:48:21;;;;;;;;;15.00;13.25;;;;;16.92;69.62;101706.09;5019940;28;45600;-75
2021/07/01 05:50:53;;;;;;;;;10.25;10.25;;;;;17.05;69.22;101709.09;5013530;28;45346;-75
2021/07/01 05:53:28;;;;;;;;;17.25;15.00;;;;;17.13;69.09;101704.31;5018577;28;45633;-75
2021/07/01 05:55:54;;;;;;;;;21.50;18.75;;;;;17.27;68.00;101710.78;5018988;28;46121;-75
2021/07/01 05:58:19;;;;;;;;;16.50;14.00;;;;;17.31;67.87;101710.56;5018323;28;45348;-75
2021/07/01 06:00:45;;;;;;;;;21.50;14.50;;;;;17.32;67.79;101699.03;5018335;28;45319;-75
2021/07/01 06:03:10;;;;;;;;;19.75;14.25;;;;;17.36;67.44;101704.22;5015149;28;45747;-75
2021/07/01 06:05:37;;;;;;;;;16.00;14.50;;;;;17.37;68.00;101708.56;5014325;28;45474;-75
2021/07/01 06:08:06;;;;;;;;;17.75;14.25;;;;;17.44;67.30;101710.00;5015826;28;45335;-75
2021/07/01 06:10:32;;;;;;;;;21.00;13.50;;;;;17.48;67.66;101708.91;5016948;28;45438;-76
2021/07/01 06:12:59;;;;;;;;;14.00;11.50;;;;;17.55;67.68;101704.19;5014685;28;45467;-75
2021/07/01 06:15:26;;;;;;;;;17.75;14.25;;;;;17.66;67.61;101706.34;5019025;28;45466;-75
2021/07/01 06:17:52;;;;;;;;;20.00;18.25;;;;;17.76;67.03;101709.41;5001305;28;45720;-75
2021/07/01 06:20:17;;;;;;;;;19.50;16.50;;;;;17.84;66.72;101712.56;5021267;28;45293;-75
2021/07/01 06:22:45;;;;;;;;;16.25;14.75;;;;;17.90;66.44;101710.56;5019141;28;45444;-74
2021/07/01 06:25:11;;;;;;;;;12.50;12.50;;;;;17.88;65.06;101716.78;5003711;28;46703;-75
2021/07/01 06:27:38;;;;;;;;;13.25;10.75;;;;;17.79;64.24;101705.75;5019576;28;45930;-81
2021/07/01 06:30:13;;;;;;;;;6.25;5.25;;;;;17.72;63.48;101707.84;5039462;28;45457;-81
2021/07/01 06:32:45;;;;;;;;;12.00;11.00;;;;;17.67;64.28;101718.69;5012343;28;45276;-80
2021/07/01 06:35:19;;;;;;;;;12.00;11.25;;;;;17.65;64.39;101709.94;5021792;28;45427;-80
2021/07/01 06:37:45;;;;;;;;;11.75;10.50;;;;;17.68;64.12;101707.13;5021933;28;45253;-80
2021/07/01 06:40:12;;;;;;;;;11.50;11.25;;;;;17.66;64.14;101711.66;5017759;28;45425;-80
2021/07/01 06:42:55;;;;;;;;;14.50;13.25;;;;;17.63;64.07;101723.28;5004469;28;45412;-80
2021/07/01 06:45:21;;;;;;;;;11.00;7.50;;;;;17.65;64.01;101720.56;5013928;28;47265;-80
2021/07/01 06:47:49;;;;;;;;;12.00;9.25;;;;;17.65;63.15;101718.78;5021532;28;45451;-80
2021/07/01 06:50:16;;;;;;;;;10.50;8.50;;;;;17.57;63.15;101706.78;5017117;28;45447;-80
2021/07/01 06:52:43;;;;;;;;;9.50;9.50;;;;;17.61;63.19;101716.31;5010650;28;45508;-80
2021/07/01 06:55:12;;;;;;;;;10.50;10.50;;;;;17.62;63.82;101710.06;5016215;28;46321;-80
2021/07/01 06:57:37;;;;;;;;;10.25;9.50;;;;;17.68;63.37;101715.09;5002344;28;45320;-84
2021/07/01 07:00:05;;;;;;;;;8.00;7.50;;;;;17.72;61.95;101726.44;5026764;28;45440;-84
2021/07/01 07:02:32;;;;;;;;;9.00;8.50;;;;;17.62;62.37;101726.91;5010492;28;45393;-84
2021/07/01 07:05:02;;;;;;;;;11.00;11.00;;;;;17.53;62.31;101727.34;5009127;28;46496;-84
2021/07/01 07:07:28;;;;;;;;;12.00;10.75;;;;;17.44;62.44;101725.94;5033712;28;45366;-84
2021/07/01 07:09:53;;;;;;;;;13.00;13.00;;;;;17.37;62.58;101728.03;5024860;28;45387;-84
2021/07/01 07:12:19;;;;;;;;;11.50;8.25;;;;;17.33;62.88;101726.47;5030149;28;45380;-84
2021/07/01 07:14:44;;;;;;;;;8.75;7.25;;;;;17.34;62.99;101740.59;5010650;28;46801;-82
2021/07/01 07:17:11;;;;;;;;;9.75;9.00;;;;;17.37;63.50;101740.47;5011198;28;45585;-82
2021/07/01 07:19:42;;;;;;;;;12.25;12.00;;;;;17.36;62.85;101736.09;5020967;28;45348;-82
2021/07/01 07:22:09;;;;;;;;;13.25;9.75;;;;;17.39;63.32;101735.94;5024722;28;45648;-81
2021/07/01 07:24:37;;;;;;;;;12.75;9.25;;;;;17.39;62.06;101736.78;5018253;28;45622;-82
2021/07/01 07:27:05;;;;;;;;;11.00;10.75;;;;;17.34;62.07;101738.81;5020594;28;45658;-81
2021/07/01 07:29:32;;;;;;;;;9.50;9.50;;;;;17.39;62.48;101749.22;5021792;28;45266;-81
2021/07/01 07:32:00;;;;;;;;;9.25;8.00;;;;;17.35;62.08;101739.66;5009768;28;45351;-82
2021/07/01 07:34:26;;;;;;;;;12.00;11.25;;;;;17.31;61.69;101741.59;5014164;28;46235;-81
2021/07/01 07:36:52;;;;;;;;;13.75;10.50;;;;;17.32;61.97;101735.34;5017733;28;45425;-82
2021/07/01 07:39:17;;;;;;;;;9.75;9.50;;;;;17.28;62.04;101732.00;5031477;28;45568;-82
2021/07/01 07:41:43;;;;;;;;;10.50;10.50;;;;;17.31;61.90;101736.28;5024344;28;45732;-82
2021/07/01 07:44:08;;;;;;;;;12.25;10.00;;;;;17.40;62.66;101732.34;5020314;28;46271;-82
2021/07/01 07:46:34;;;;;;;;;13.25;12.25;;;;;17.46;61.96;101736.53;5020801;28;45294;-81
2021/07/01 07:49:00;;;;;;;;;13.50;12.50;;;;;17.52;62.12;101737.09;5019383;28;45229;-82
2021/07/01 07:51:29;;;;;;;;;11.00;10.50;;;;;17.63;61.59;101735.75;5019844;28;45214;-81
2021/07/01 07:54:00;;;;;;;;;15.00;13.75;;;;;17.60;61.02;101733.22;5018311;28;46393;-81
2021/07/01 07:56:36;;;;;;;;;18.50;13.75;;;;;17.59;61.55;101729.69;5020692;28;45225;-81
2021/07/01 07:59:02;;;;;;;;;14.00;11.50;;;;;17.61;61.52;101737.59;5013369;28;46617;-82
2021/07/01 08:01:33;;;;;;;;;14.75;12.25;;;;;17.67;61.53;101732.00;5003859;28;46248;-82
2021/07/01 08:04:03;;;;;;;;;20.25;14.75;;;;;17.76;61.30;101742.19;5006228;28;45293;-82
2021/07/01 08:06:29;;;;;;;;;14.75;13.25;;;;;17.81;61.67;101741.09;5016618;28;45699;-82
2021/07/01 08:08:57;;;;;;;;;15.75;13.00;;;;;17.85;61.96;101735.53;5014922;28;45353;-82
2021/07/01 08:11:24;;;;;;;;;17.00;14.25;;;;;17.88;60.91;101734.53;5029922;28;45438;-82
2021/07/01 08:13:55;;;;;;;;;18.00;17.00;;;;;17.89;60.45;101736.28;5018763;28;45438;-82
2021/07/01 08:16:23;;;;;;;;;21.50;16.75;;;;;17.90;61.34;101730.03;5010576;28;45601;-81
2021/07/01 08:18:49;;;;;;;;;20.25;19.25;;;;;17.91;59.98;101731.75;5008563;28;45277;-82
2021/07/01 08:21:15;;;;;;;;;18.25;17.25;;;;;17.86;60.71;101723.13;5018038;28;45473;-82
2021/07/01 08:23:42;;;;;;;;;17.50;17.50;;;;;17.95;61.06;101724.50;5013493;28;47185;-82
2021/07/01 08:26:09;;;;;;;;;15.75;14.75;;;;;17.99;61.33;101718.06;5017772;28;45454;-82
2021/07/01 08:28:35;;;;;;;;;16.00;15.50;;;;;18.06;61.24;101722.16;5018388;28;45470;-82
2021/07/01 08:31:16;;;;;;;;;23.50;19.25;;;;;18.14;61.51;101711.13;5009936;28;45290;-81
2021/07/01 08:33:44;;;;;;;;;21.00;20.50;;;;;18.25;60.99;101707.13;5018703;28;45893;-82
2021/07/01 08:36:14;;;;;;;;;22.50;17.25;;;;;18.33;60.71;101715.56;5019283;28;45820;-82
2021/07/01 08:38:41;;;;;;;;;18.00;16.50;;;;;18.42;60.61;101719.56;5014806;28;45460;-82
2021/07/01 08:41:17;;;;;;;;;18.75;16.00;;;;;18.44;59.67;101721.22;5020005;28;45244;-82
2021/07/01 08:43:54;;;;;;;;;13.50;13.50;;;;;18.38;60.41;101710.00;5015660;28;45397;-82
2021/07/01 08:46:41;;;;;;;;;13.25;11.50;;;;;18.49;60.24;101730.75;5015024;28;45479;-82
2021/07/01 08:49:09;;;;;;;;;21.50;21.25;;;;;18.43;59.65;101716.81;5019582;28;45922;-82
2021/07/01 08:51:46;;;;;;;;;18.00;17.25;;;;;18.44;60.23;101713.22;5011283;28;45467;-81
2021/07/01 08:54:31;;;;;;;;;18.75;17.00;;;;;18.50;59.28;101713.81;5009034;28;46246;-81
2021/07/01 08:56:57;;;;;;;;;15.75;15.00;;;;;18.50;59.12;101716.50;5016704;28;45518;-82
2021/07/01 08:59:25;;;;;;;;;22.00;17.25;;;;;18.58;59.37;101722.28;5030284;28;45395;-82
2021/07/01 09:02:02;;;;;;;;;14.75;13.50;;;;;18.65;59.70;101714.84;5019010;28;45364;-82
2021/07/01 09:04:30;;;;;;;;;24.50;18.50;;;;;18.74;59.39;101710.84;5028432;28;46048;-81
2021/07/01 09:07:06;;;;;;;;;16.50;15.75;;;;;18.83;59.38;101707.69;5012506;28;45578;-82
2021/07/01 09:09:36;;;;;;;;;24.50;21.50;;;;;18.88;59.13;101699.47;5014838;28;45403;-81
2021/07/01 09:12:06;;;;;;;;;23.75;17.25;;;;;18.94;59.02;101704.44;5007387;28;45543;-81
2021/07/01 09:14:35;;;;;;;;;20.25;15.75;;;;;19.04;59.36;101704.81;5016127;28;46507;-81
2021/07/01 09:17:03;;;;;;;;;17.00;17.00;;;;;19.10;59.27;101704.50;5021103;28;45391;-81
2021/07/01 09:19:28;;;;;;;;;21.50;17.25;;;;;19.15;57.95;101722.91;5019335;28;45244;-81
2021/07/01 09:21:54;;;;;;;;;16.50;15.00;;;;;19.10;57.64;101709.84;5018762;28;45432;-81
2021/07/01 09:24:21;;;;;;;;;18.75;16.25;;;;;19.07;57.26;101709.13;5019524;28;46474;-81
2021/07/01 09:26:48;;;;;;;;;20.75;17.00;;;;;19.10;57.62;101707.16;5018036;28;45833;-81
2021/07/01 09:29:16;;;;;;;;;18.75;14.75;;;;;19.18;56.67;101711.25;5018867;28;45459;-81
2021/07/01 09:31:42;;;;;;;;;18.75;18.25;;;;;19.18;57.30;101706.78;5016329;28;45335;-82
2021/07/01 09:34:10;;;;;;;;;23.50;21.50;;;;;19.20;57.01;101702.22;5018717;28;45377;-81
2021/07/01 09:36:36;;;;;;;;;21.75;16.25;;;;;19.29;56.81;101708.84;5019121;28;45228;-82
2021/07/01 09:39:03;;;;;;;;;23.75;21.00;;;;;19.28;56.90;101707.16;5018654;28;45300;-82
2021/07/01 09:41:30;;;;;;;;;19.75;18.25;;;;;19.24;57.26;101705.56;5019154;28;45610;-82
2021/07/01 09:43:56;;;;;;;;;20.25;18.25;;;;;19.19;57.37;101702.28;5019172;28;46304;-81
2021/07/01 09:46:27;;;;;;;;;21.00;16.50;;;;;19.25;56.92;101717.09;5018384;28;45426;-81
2021/07/01 09:48:53;;;;;;;;;22.00;21.25;;;;;19.23;57.04;101711.88;5017963;28;45474;-81
2021/07/01 09:51:20;;;;;;;;;21.75;19.50;;;;;19.28;56.94;101712.47;5022150;28;45339;-81
2021/07/01 09:53:51;;;;;;;;;18.00;18.00;;;;;19.39;57.06;101719.00;5022870;28;46322;-82
2021/07/01 09:56:37;;;;;;;;;24.00;18.75;;;;;19.41;56.62;101719.81;5022914;28;45407;-82
2021/07/01 09:59:03;;;;;;;;;25.25;16.25;;;;;19.42;57.15;101713.50;5022096;28;45515;-81
2021/07/01 10:01:41;;;;;;;;;22.75;22.75;;;;;19.49;57.47;101709.56;5028506;28;45537;-82
2021/07/01 10:04:08;;;;;;;;;23.00;20.00;;;;;19.55;56.72;101711.91;5022304;28;45499;-81
2021/07/01 10:06:34;;;;;;;;;25.75;23.50;;;;;19.58;57.75;101712.66;5001216;28;45668;-81
2021/07/01 10:09:00;;;;;;;;;19.25;18.25;;;;;19.57;57.73;101709.13;5019335;28;45408;-82
2021/07/01 10:11:37;;;;;;;;;23.50;21.00;;;;;19.61;57.77;101707.13;5020912;28;45167;-80
2021/07/01 10:14:11;;;;;;;;;20.50;17.00;;;;;19.67;58.25;101712.13;5020651;28;45754;-82
2021/07/01 10:16:37;;;;;;;;;21.50;17.75;;;;;19.77;58.06;101713.34;5019770;28;45356;-78
2021/07/01 10:19:07;;;;;;;;;25.50;24.00;;;;;19.90;58.46;101716.16;5021294;28;45486;-79
2021/07/01 10:21:33;;;;;;;;;19.75;19.25;;;;;19.94;58.31;101708.84;5020936;28;45303;-79
2021/07/01 10:24:21;;;;;;;;;21.50;18.75;;;;;19.94;56.24;101707.97;5032025;28;45347;-79
2021/07/01 10:26:50;;;;;;;;;22.50;18.25;;;;;19.84;56.10;101699.63;5020218;28;45395;-80
2021/07/01 10:29:18;;;;;;;;;25.00;24.00;;;;;19.82;57.39;101704.22;5021672;28;45323;-80
2021/07/01 10:31:59;;;;;;;;;24.25;23.25;;;;;19.89;56.94;101705.56;5014406;28;45598;-79
2021/07/01 10:34:26;;;;;;;;;27.00;23.75;;;;;19.95;57.43;101710.53;5020993;28;45429;-79
2021/07/01 10:37:12;;;;;;;;;25.00;19.50;;;;;19.96;57.09;101712.28;5021763;28;45442;-80
2021/07/01 10:39:39;;;;;;;;;24.50;20.00;;;;;19.90;56.96;101709.97;5022068;28;45265;-79
2021/07/01 10:42:06;;;;;;;;;25.00;22.50;;;;;19.86;55.74;101706.63;5017925;28;45511;-79
2021/07/01 10:44:31;;;;;;;;;20.50;19.25;;;;;19.86;55.92;101716.41;5019247;28;45528;-79
2021/07/01 10:46:56;;;;;;;;;16.75;12.50;;;;;19.78;56.24;101714.19;5019276;28;45221;-79
2021/07/01 10:49:33;;;;;;;;;22.00;19.00;;;;;19.77;55.83;101710.69;5021610;28;45842;-79
2021/07/01 10:52:00;;;;;;;;;20.50;20.50;;;;;19.81;55.94;101714.00;5021560;28;45363;-79
2021/07/01 10:54:26;;;;;;;;;51.25;39.75;;;;;19.83;56.50;101713.94;5018534;28;45555;-79
2021/07/01 10:57:06;;;;;;;;;26.75;26.25;;;;;19.90;56.86;101717.97;5020804;28;45798;-79
2021/07/01 10:59:51;;;;;;;;;28.50;23.25;;;;;19.98;56.19;101715.72;5021866;28;46519;-80
2021/07/01 11:02:28;;;;;;;;;20.25;17.25;;;;;19.95;56.97;101713.22;5018900;28;45523;-79
2021/07/01 11:04:57;;;;;;;;;23.50;19.50;;;;;20.04;56.81;101713.63;5016755;28;46313;-79
2021/07/01 11:07:24;;;;;;;;;23.50;21.25;;;;;20.06;56.71;101712.59;5019875;28;45773;-79
2021/07/01 11:09:53;;;;;;;;;22.50;20.50;;;;;20.09;57.05;101707.09;5019344;28;45293;-79
2021/07/01 11:12:21;;;;;;;;;18.00;17.25;;;;;20.16;56.59;101715.63;5020818;28;45417;-79